createdAt,value
2023-03-15T00:01:38.196Z,33.83
2023-03-15T00:04:06.941Z,34.12
2023-03-15T00:06:35.816Z,33.95
2023-03-15T00:09:05.164Z,33.90
2023-03-15T00:11:35.013Z,33.93
2023-03-15T00:14:03.521Z,33.84
2023-03-15T00:16:32.998Z,34.07
2023-03-15T00:19:01.937Z,34.01
2023-03-15T00:21:30.932Z,34.05
2023-03-15T00:23:59.394Z,34.06
2023-03-15T00:26:28.053Z,34.02
2023-03-15T00:28:57.877Z,33.96
2023-03-15T00:31:27.255Z,33.82
2023-03-15T00:33:55.905Z,33.74
2023-03-15T00:36:25.663Z,33.62
2023-03-15T00:38:56.571Z,33.59
2023-03-15T00:41:25.411Z,33.34
2023-03-15T00:43:54.179Z,33.37
2023-03-15T00:46:24.092Z,33.20
2023-03-15T00:48:53.778Z,33.05
2023-03-15T00:51:25.191Z,33.04
2023-03-15T00:53:58.301Z,32.89
2023-03-15T00:56:30.117Z,32.68
2023-03-15T00:58:59.566Z,32.97
2023-03-15T01:01:31.237Z,32.86
2023-03-15T01:03:59.703Z,32.89
2023-03-15T01:06:30.438Z,33.00
2023-03-15T01:08:59.614Z,32.92
2023-03-15T01:11:29.606Z,33.05
2023-03-15T01:13:59.899Z,32.87
2023-03-15T01:16:30.666Z,32.83
2023-03-15T01:18:59.125Z,32.90
2023-03-15T01:21:27.700Z,32.86
2023-03-15T01:23:56.457Z,32.68
2023-03-15T01:26:25.591Z,33.33
2023-03-15T01:28:54.054Z,34.20
2023-03-15T01:31:24.996Z,34.75
2023-03-15T01:33:55.932Z,36.13
2023-03-15T01:36:25.050Z,36.22
2023-03-15T01:38:53.945Z,36.30
2023-03-15T01:41:24.800Z,36.79
2023-03-15T01:43:53.495Z,36.82
2023-03-15T01:46:34.241Z,36.83
2023-03-15T01:49:12.556Z,36.88
2023-03-15T01:51:47.725Z,36.92
2023-03-15T01:54:21.773Z,37.04
2023-03-15T01:56:53.786Z,37.30
2023-03-15T01:59:28.109Z,37.26
2023-03-15T02:01:57.204Z,37.58
2023-03-15T02:04:34.949Z,37.69
2023-03-15T02:07:05.598Z,37.53
2023-03-15T02:09:43.584Z,37.92
2023-03-15T02:12:12.524Z,37.62
2023-03-15T02:14:42.147Z,38.16
2023-03-15T02:17:10.795Z,38.15
2023-03-15T02:19:56.670Z,38.03
2023-03-15T02:22:33.954Z,38.25
2023-03-15T02:25:11.947Z,38.38
2023-03-15T02:27:42.114Z,38.67
2023-03-15T02:30:13.116Z,38.70
2023-03-15T02:32:42.474Z,38.87
2023-03-15T02:35:11.872Z,38.92
2023-03-15T02:37:46.020Z,39.03
2023-03-15T02:40:20.309Z,38.88
2023-03-15T02:42:54.954Z,38.55
2023-03-15T02:45:25.074Z,39.12
2023-03-15T02:47:54.080Z,39.15
2023-03-15T02:50:22.569Z,38.77
2023-03-15T02:52:52.643Z,38.74
2023-03-15T02:55:21.917Z,38.88
2023-03-15T02:57:51.828Z,38.87
2023-03-15T03:00:21.047Z,38.93
2023-03-15T03:02:50.139Z,39.05
2023-03-15T03:05:19.404Z,39.33
2023-03-15T03:07:49.282Z,39.03
2023-03-15T03:10:19.575Z,38.82
2023-03-15T03:12:53.348Z,39.31
2023-03-15T03:15:23.279Z,39.49
2023-03-15T03:17:51.676Z,39.22
2023-03-15T03:20:20.316Z,39.19
2023-03-15T03:22:48.769Z,38.89
2023-03-15T03:25:17.981Z,38.97
2023-03-15T03:27:46.372Z,39.26
2023-03-15T03:30:15.989Z,39.14
2023-03-15T03:32:46.078Z,39.39
2023-03-15T03:35:16.115Z,39.19
2023-03-15T03:37:44.828Z,39.05
2023-03-15T03:40:14.545Z,39.32
2023-03-15T03:42:42.960Z,39.39
2023-03-15T03:45:12.753Z,39.26
2023-03-15T03:47:41.227Z,39.25
2023-03-15T03:50:12.751Z,39.36
2023-03-15T03:52:43.906Z,38.89
2023-03-15T03:55:13.832Z,38.78
2023-03-15T03:57:42.627Z,38.30
2023-03-15T04:00:15.569Z,38.33
2023-03-15T04:02:44.235Z,38.25
2023-03-15T04:05:14.433Z,37.84
2023-03-15T04:07:42.833Z,37.56
2023-03-15T04:10:14.772Z,36.99
2023-03-15T04:12:44.280Z,37.16
2023-03-15T04:15:13.625Z,36.90
2023-03-15T04:17:42.144Z,35.95
2023-03-15T04:20:13.847Z,35.72
2023-03-15T04:22:42.256Z,35.93
2023-03-15T04:25:11.306Z,35.70
2023-03-15T04:27:39.678Z,35.61
2023-03-15T04:30:09.836Z,35.41
2023-03-15T04:32:38.377Z,35.53
2023-03-15T04:35:11.342Z,35.75
2023-03-15T04:37:42.520Z,35.68
2023-03-15T04:40:12.837Z,35.57
2023-03-15T04:42:41.247Z,35.52
2023-03-15T04:45:11.184Z,35.08
2023-03-15T04:47:39.607Z,35.06
2023-03-15T04:50:09.835Z,35.44
2023-03-15T04:52:41.063Z,35.02
2023-03-15T04:55:10.805Z,35.12
2023-03-15T04:57:39.360Z,34.58
2023-03-15T05:00:12.067Z,34.91
2023-03-15T05:02:41.873Z,34.65
2023-03-15T05:05:11.929Z,34.94
2023-03-15T05:07:41.769Z,34.94
2023-03-15T05:10:11.932Z,34.60
2023-03-15T05:12:40.885Z,34.49
2023-03-15T05:15:11.322Z,34.36
2023-03-15T05:17:39.746Z,34.58
2023-03-15T05:20:12.115Z,34.52
2023-03-15T05:22:42.234Z,34.53
2023-03-15T05:25:11.822Z,34.52
2023-03-15T05:27:41.144Z,34.77
2023-03-15T05:30:11.960Z,34.43
2023-03-15T05:32:44.898Z,34.43
2023-03-15T05:35:14.478Z,34.58
2023-03-15T05:37:44.283Z,34.63
2023-03-15T05:40:15.515Z,34.61
2023-03-15T05:42:43.895Z,34.46
2023-03-15T05:45:13.002Z,34.81
2023-03-15T05:47:41.454Z,34.44
2023-03-15T05:50:11.424Z,34.49
2023-03-15T05:52:39.812Z,34.49
2023-03-15T05:55:10.931Z,33.91
2023-03-15T05:57:39.340Z,34.05
2023-03-15T06:00:10.713Z,34.12
2023-03-15T06:02:39.080Z,33.91
2023-03-15T06:05:08.709Z,33.91
2023-03-15T06:07:37.179Z,33.40
2023-03-15T06:10:08.767Z,33.17
2023-03-15T06:12:37.149Z,33.29
2023-03-15T06:15:07.202Z,33.51
2023-03-15T06:17:35.632Z,33.27
2023-03-15T06:20:05.185Z,33.11
2023-03-15T06:22:34.072Z,33.30
2023-03-15T06:25:03.577Z,32.85
2023-03-15T06:27:33.459Z,32.95
2023-03-15T06:30:01.906Z,32.50
2023-03-15T06:32:30.464Z,32.47
2023-03-15T06:34:59.024Z,32.72
2023-03-15T06:37:35.078Z,32.42
2023-03-15T06:40:07.314Z,32.44
2023-03-15T06:42:37.288Z,31.78
2023-03-15T06:45:06.918Z,32.21
2023-03-15T06:47:35.545Z,31.69
2023-03-15T06:50:04.397Z,31.81
2023-03-15T06:52:32.845Z,31.50
2023-03-15T06:55:01.255Z,31.39
2023-03-15T06:57:29.765Z,31.22
2023-03-15T06:59:59.671Z,30.65
2023-03-15T07:02:28.135Z,30.57
2023-03-15T07:04:56.810Z,30.26
2023-03-15T07:07:25.259Z,30.42
2023-03-15T07:09:55.208Z,30.46
2023-03-15T07:12:23.763Z,30.64
2023-03-15T07:14:52.237Z,30.70
2023-03-15T07:17:22.113Z,30.47
2023-03-15T07:19:56.484Z,30.42
2023-03-15T07:22:26.658Z,30.57
2023-03-15T07:24:55.117Z,30.05
2023-03-15T07:27:23.533Z,30.37
2023-03-15T07:29:52.001Z,29.79
2023-03-15T07:32:21.887Z,30.06
2023-03-15T07:34:50.374Z,29.28
2023-03-15T07:37:18.799Z,29.64
2023-03-15T07:39:47.239Z,29.48
2023-03-15T07:42:15.661Z,29.59
2023-03-15T07:44:44.150Z,29.55
2023-03-15T07:47:13.051Z,29.62
2023-03-15T07:49:42.910Z,29.34
2023-03-15T07:52:11.726Z,29.12
2023-03-15T07:54:40.731Z,29.35
2023-03-15T07:57:09.522Z,29.67
2023-03-15T07:59:37.964Z,29.35
2023-03-15T08:02:06.653Z,28.91
2023-03-15T08:04:36.555Z,28.58
2023-03-15T08:07:07.261Z,28.59
2023-03-15T08:09:35.706Z,28.49
2023-03-15T08:12:04.475Z,28.61
2023-03-15T08:14:33.554Z,28.86
2023-03-15T08:17:02.048Z,28.70
2023-03-15T08:19:30.484Z,28.92
2023-03-15T08:21:58.926Z,28.79
2023-03-15T08:24:28.805Z,28.95
2023-03-15T08:26:57.296Z,29.00
2023-03-15T08:29:25.788Z,28.75
2023-03-15T08:31:54.238Z,28.88
2023-03-15T08:34:22.814Z,28.65
2023-03-15T08:36:51.453Z,28.15
2023-03-15T08:39:19.949Z,27.91
2023-03-15T08:41:50.456Z,27.73
2023-03-15T08:44:19.047Z,28.04
2023-03-15T08:46:47.684Z,27.81
2023-03-15T08:49:16.194Z,27.85
2023-03-15T08:51:44.595Z,27.84
2023-03-15T08:54:14.255Z,27.79
2023-03-15T08:56:43.003Z,28.06
2023-03-15T08:59:19.311Z,27.66
2023-03-15T09:01:48.090Z,27.80
2023-03-15T09:04:16.588Z,27.31
2023-03-15T09:06:45.033Z,26.93
2023-03-15T09:09:17.575Z,26.71
2023-03-15T09:11:46.057Z,26.62
2023-03-15T09:14:15.877Z,26.34
2023-03-15T09:16:44.908Z,26.79
2023-03-15T09:19:13.422Z,26.83
2023-03-15T09:21:42.297Z,26.89
2023-03-15T09:24:12.966Z,26.67
2023-03-15T09:26:41.371Z,26.52
2023-03-15T09:29:09.949Z,26.70
2023-03-15T09:31:39.969Z,26.39
2023-03-15T09:34:08.694Z,26.44
2023-03-15T09:36:37.161Z,26.38
2023-03-15T09:39:06.000Z,25.79
2023-03-15T09:41:44.021Z,25.90
2023-03-15T09:44:29.208Z,25.52
2023-03-15T09:47:18.005Z,25.75
2023-03-15T09:49:53.285Z,25.94
2023-03-15T09:52:31.932Z,26.25
2023-03-15T09:55:04.953Z,25.44
2023-03-15T09:57:42.380Z,25.73
2023-03-15T10:00:18.968Z,25.50
2023-03-15T10:02:59.527Z,25.62
2023-03-15T10:05:40.217Z,25.56
2023-03-15T10:08:12.964Z,25.22
2023-03-15T10:10:50.701Z,24.91
2023-03-15T10:13:45.411Z,25.06
2023-03-15T10:16:33.409Z,25.00
2023-03-15T10:19:22.724Z,25.46
2023-03-15T10:22:02.016Z,24.94
2023-03-15T10:24:39.875Z,24.80
2023-03-15T10:27:20.374Z,25.32
2023-03-15T10:29:52.781Z,25.46
2023-03-15T10:32:27.079Z,25.26
2023-03-15T10:34:59.532Z,25.45
2023-03-15T10:37:28.092Z,25.55
2023-03-15T10:39:59.692Z,25.11
2023-03-15T10:42:34.337Z,24.40
2023-03-15T10:45:22.818Z,24.88
2023-03-15T10:48:00.261Z,24.33
2023-03-15T10:50:33.665Z,24.50
2023-03-15T10:53:10.453Z,24.13
2023-03-15T10:55:45.387Z,24.20
2023-03-15T10:58:27.569Z,24.18
2023-03-15T11:01:03.901Z,23.27
2023-03-15T11:03:32.426Z,22.79
2023-03-15T11:06:03.468Z,22.79
2023-03-15T11:08:41.477Z,22.39
2023-03-15T11:11:10.904Z,21.78
2023-03-15T11:13:41.335Z,22.00
2023-03-15T11:16:23.058Z,21.03
2023-03-15T11:18:57.012Z,21.30
2023-03-15T11:21:33.626Z,21.36
2023-03-15T11:24:05.759Z,21.17
2023-03-15T11:26:38.122Z,21.54
2023-03-15T11:29:23.263Z,21.11
2023-03-15T11:31:53.842Z,20.56
2023-03-15T11:34:43.072Z,20.90
2023-03-15T11:37:21.564Z,21.10
2023-03-15T11:40:08.848Z,21.36
2023-03-15T11:42:46.040Z,20.37
2023-03-15T11:45:23.607Z,19.95
2023-03-15T11:47:59.104Z,20.11
2023-03-15T11:50:27.585Z,20.10
2023-03-15T11:53:03.015Z,20.34
2023-03-15T11:55:33.527Z,20.33
2023-03-15T11:58:31.805Z,20.35
2023-03-15T12:01:04.104Z,19.87
2023-03-15T12:03:43.139Z,20.24
2023-03-15T12:06:38.376Z,19.97
2023-03-15T12:09:47.017Z,20.10
2023-03-15T12:12:38.686Z,19.96
2023-03-15T12:15:32.223Z,19.78
2023-03-15T12:18:06.403Z,19.77
2023-03-15T12:20:39.266Z,18.75
2023-03-15T12:23:38.920Z,18.84
2023-03-15T12:26:23.242Z,18.64
2023-03-15T12:29:04.032Z,18.89
2023-03-15T12:31:58.804Z,18.73
2023-03-15T12:34:38.999Z,18.78
2023-03-15T12:37:14.548Z,18.75
2023-03-15T12:39:47.898Z,18.28
2023-03-15T12:43:04.383Z,18.47
2023-03-15T12:45:46.572Z,17.53
2023-03-15T12:48:26.549Z,18.22
2023-03-15T12:51:14.605Z,17.37
2023-03-15T12:53:53.477Z,16.87
2023-03-15T12:56:50.924Z,16.83
2023-03-15T12:59:33.912Z,16.48
2023-03-15T13:02:09.954Z,15.44
2023-03-15T13:04:40.071Z,15.63
2023-03-15T13:07:33.174Z,15.75
2023-03-15T13:11:00.860Z,15.50
2023-03-15T13:14:03.314Z,15.68
2023-03-15T13:16:40.303Z,15.86
2023-03-15T13:19:20.188Z,15.95
2023-03-15T13:22:08.535Z,15.96
2023-03-15T13:24:46.236Z,15.81
2023-03-15T13:27:29.440Z,15.76
2023-03-15T13:29:57.958Z,16.15
2023-03-15T13:32:26.564Z,15.51
2023-03-15T13:34:58.803Z,15.28
2023-03-15T13:37:29.210Z,15.63
2023-03-15T13:40:02.566Z,15.11
2023-03-15T13:42:31.259Z,15.25
2023-03-15T13:45:15.458Z,15.59
2023-03-15T13:47:46.296Z,15.09
2023-03-15T13:50:20.557Z,15.65
2023-03-15T13:52:50.874Z,15.84
2023-03-15T13:55:25.390Z,15.99
2023-03-15T13:58:00.187Z,15.95
2023-03-15T14:00:33.876Z,15.80
2023-03-15T14:03:05.829Z,15.95
2023-03-15T14:05:46.012Z,16.08
2023-03-15T14:08:25.164Z,16.06
2023-03-15T14:11:04.717Z,16.20
2023-03-15T14:13:36.350Z,16.07
2023-03-15T14:16:08.036Z,16.37
2023-03-15T14:18:38.758Z,16.36
2023-03-15T14:21:16.815Z,16.40
2023-03-15T14:23:48.390Z,16.48
2023-03-15T14:26:21.769Z,16.59
2023-03-15T14:29:02.522Z,16.79
2023-03-15T14:31:42.421Z,16.80
2023-03-15T14:34:23.790Z,16.74
2023-03-15T14:36:59.901Z,16.78
2023-03-15T14:39:33.357Z,16.74
2023-03-15T14:42:02.129Z,16.68
2023-03-15T14:44:30.646Z,16.88
2023-03-15T14:47:00.349Z,16.98
2023-03-15T14:49:30.228Z,17.14
2023-03-15T14:52:03.738Z,17.07
2023-03-15T14:54:33.699Z,17.25
2023-03-15T14:57:02.290Z,16.94
2023-03-15T14:59:30.962Z,17.38
2023-03-15T15:02:03.196Z,17.37
2023-03-15T15:04:35.118Z,17.73
2023-03-15T15:07:05.221Z,17.69
2023-03-15T15:09:34.080Z,17.94
2023-03-15T15:12:02.610Z,17.79
2023-03-15T15:14:31.700Z,17.82
2023-03-15T15:17:00.586Z,17.88
2023-03-15T15:19:29.400Z,18.26
2023-03-15T15:21:58.843Z,18.33
2023-03-15T15:24:29.569Z,18.57
2023-03-15T15:26:58.089Z,18.76
2023-03-15T15:29:26.892Z,18.64
2023-03-15T15:31:55.860Z,18.79
2023-03-15T15:34:24.594Z,18.86
2023-03-15T15:36:53.183Z,18.66
2023-03-15T15:39:27.729Z,19.00
2023-03-15T15:41:58.492Z,19.06
2023-03-15T15:44:27.277Z,19.21
2023-03-15T15:46:57.465Z,19.34
2023-03-15T15:49:26.386Z,19.26
2023-03-15T15:51:54.997Z,19.32
2023-03-15T15:54:30.562Z,19.45
2023-03-15T15:57:02.126Z,19.36
2023-03-15T15:59:31.381Z,19.26
2023-03-15T16:02:02.097Z,19.23
2023-03-15T16:04:33.397Z,19.30
2023-03-15T16:07:05.184Z,19.49
2023-03-15T16:09:38.211Z,19.65
2023-03-15T16:12:15.779Z,20.02
2023-03-15T16:14:44.838Z,20.11
2023-03-15T16:17:16.259Z,20.35
2023-03-15T16:19:44.752Z,20.38
2023-03-15T16:22:14.362Z,20.72
2023-03-15T16:24:47.017Z,20.82
2023-03-15T16:27:20.922Z,20.70
2023-03-15T16:29:53.510Z,20.96
2023-03-15T16:32:37.181Z,20.97
2023-03-15T16:35:16.086Z,21.01
2023-03-15T16:37:48.993Z,21.24
2023-03-15T16:40:27.060Z,21.33
2023-03-15T16:42:58.888Z,21.38
2023-03-15T16:45:29.149Z,21.25
2023-03-15T16:48:00.260Z,21.47
2023-03-15T16:50:32.512Z,21.40
2023-03-15T16:53:08.459Z,21.40
2023-03-15T16:55:38.463Z,21.50
2023-03-15T16:58:20.706Z,21.26
2023-03-15T17:00:52.811Z,21.28
2023-03-15T17:03:23.178Z,21.39
2023-03-15T17:05:53.575Z,21.32
2023-03-15T17:08:24.471Z,21.38
2023-03-15T17:10:55.429Z,21.58
2023-03-15T17:13:32.344Z,21.74
2023-03-15T17:16:02.968Z,21.57
2023-03-15T17:18:34.965Z,21.95
2023-03-15T17:21:05.365Z,22.35
2023-03-15T17:23:36.717Z,24.04
2023-03-15T17:26:08.607Z,25.73
2023-03-15T17:28:42.605Z,26.53
2023-03-15T17:31:25.147Z,27.31
2023-03-15T17:33:57.724Z,28.21
2023-03-15T17:36:33.560Z,27.94
2023-03-15T17:39:05.356Z,28.26
2023-03-15T17:41:39.847Z,28.65
2023-03-15T17:44:13.979Z,28.44
2023-03-15T17:46:44.103Z,29.16
2023-03-15T17:49:16.584Z,29.00
2023-03-15T17:51:56.002Z,29.45
2023-03-15T17:54:27.575Z,29.13
2023-03-15T17:57:00.139Z,29.72
2023-03-15T17:59:32.627Z,29.69
2023-03-15T18:02:03.642Z,30.18
2023-03-15T18:04:35.092Z,30.79
2023-03-15T18:07:04.986Z,30.58
2023-03-15T18:09:37.263Z,31.25
2023-03-15T18:12:13.783Z,31.12
2023-03-15T18:14:47.012Z,31.29
2023-03-15T18:17:17.579Z,31.41
2023-03-15T18:19:48.040Z,31.16
2023-03-15T18:22:19.375Z,31.58
2023-03-15T18:24:49.594Z,30.91
2023-03-15T18:27:21.761Z,30.75
2023-03-15T18:29:58.018Z,30.56
2023-03-15T18:32:28.756Z,30.58
2023-03-15T18:35:00.213Z,30.36
2023-03-15T18:37:30.630Z,30.82
2023-03-15T18:40:00.730Z,30.93
2023-03-15T18:42:30.720Z,30.60
2023-03-15T18:45:03.072Z,30.45
2023-03-15T18:47:34.495Z,31.05
2023-03-15T18:50:11.114Z,30.82
2023-03-15T18:52:42.158Z,30.63
2023-03-15T18:55:14.889Z,30.72
2023-03-15T18:57:47.316Z,30.88
2023-03-15T19:00:26.896Z,30.68
2023-03-15T19:03:00.409Z,30.59
2023-03-15T19:05:38.073Z,30.76
2023-03-15T19:08:09.026Z,31.03
2023-03-15T19:10:40.161Z,31.25
2023-03-15T19:13:10.004Z,31.17
2023-03-15T19:15:42.876Z,31.21
2023-03-15T19:18:15.565Z,30.88
2023-03-15T19:20:55.798Z,31.36
2023-03-15T19:23:26.973Z,31.41
2023-03-15T19:25:57.671Z,31.27
2023-03-15T19:28:31.524Z,31.25
2023-03-15T19:31:06.169Z,31.79
2023-03-15T19:33:39.515Z,31.29
2023-03-15T19:36:12.535Z,31.43
2023-03-15T19:38:43.381Z,31.69
2023-03-15T19:41:14.154Z,31.42
2023-03-15T19:43:45.183Z,31.56
2023-03-15T19:46:18.599Z,31.29
2023-03-15T19:48:50.622Z,31.16
2023-03-15T19:51:22.109Z,31.53
2023-03-15T19:53:54.731Z,31.04
2023-03-15T19:56:26.213Z,31.24
2023-03-15T19:58:57.854Z,31.25
2023-03-15T20:01:33.082Z,31.09
2023-03-15T20:04:04.264Z,30.97
2023-03-15T20:06:36.156Z,31.26
2023-03-15T20:09:07.271Z,31.14
2023-03-15T20:11:38.755Z,31.29
2023-03-15T20:14:14.825Z,30.79
2023-03-15T20:16:52.116Z,31.28
2023-03-15T20:19:24.188Z,30.82
2023-03-15T20:22:01.000Z,31.07
2023-03-15T20:24:31.964Z,31.02
2023-03-15T20:27:04.490Z,30.75
2023-03-15T20:29:36.410Z,30.80
2023-03-15T20:32:09.429Z,31.06
2023-03-15T20:34:42.778Z,30.60
2023-03-15T20:37:14.465Z,30.87
2023-03-15T20:39:56.196Z,30.93
2023-03-15T20:42:27.897Z,30.59
2023-03-15T20:44:58.773Z,30.84
2023-03-15T20:47:31.690Z,30.95
2023-03-15T20:50:05.250Z,31.01
2023-03-15T20:52:39.040Z,31.34
2023-03-15T20:55:12.215Z,31.10
2023-03-15T20:57:44.710Z,31.39
2023-03-15T21:00:20.743Z,31.50
2023-03-15T21:02:52.951Z,31.36
2023-03-15T21:05:25.263Z,31.46
2023-03-15T21:07:58.065Z,31.35
2023-03-15T21:10:29.650Z,31.43
2023-03-15T21:12:59.890Z,31.76
2023-03-15T21:15:30.032Z,31.91
2023-03-15T21:18:01.830Z,32.11
2023-03-15T21:20:31.954Z,31.92
2023-03-15T21:23:01.918Z,32.05
2023-03-15T21:25:33.142Z,32.56
2023-03-15T21:28:04.588Z,32.56
2023-03-15T21:30:34.473Z,32.38
2023-03-15T21:33:05.415Z,32.40
2023-03-15T21:35:36.447Z,32.45
2023-03-15T21:38:06.171Z,32.65
2023-03-15T21:40:35.817Z,32.62
2023-03-15T21:43:07.652Z,32.55
2023-03-15T21:45:41.555Z,32.62
2023-03-15T21:48:12.746Z,33.21
2023-03-15T21:50:41.625Z,33.17
2023-03-15T21:53:10.537Z,32.81
2023-03-15T21:55:39.308Z,32.76
2023-03-15T21:58:07.793Z,33.26
2023-03-15T22:00:36.713Z,33.05
2023-03-15T22:03:05.605Z,33.17
2023-03-15T22:05:36.797Z,33.26
2023-03-15T22:08:05.271Z,33.56
2023-03-15T22:10:33.715Z,33.20
2023-03-15T22:13:02.134Z,33.51
2023-03-15T22:15:30.578Z,33.35
2023-03-15T22:17:58.994Z,33.47
2023-03-15T22:20:27.611Z,33.77
2023-03-15T22:22:57.642Z,33.67
2023-03-15T22:25:26.119Z,33.98
2023-03-15T22:27:54.596Z,34.31
2023-03-15T22:30:23.891Z,34.35
2023-03-15T22:32:52.741Z,34.39
2023-03-15T22:35:21.460Z,34.78
2023-03-15T22:37:56.341Z,34.58
2023-03-15T22:40:29.113Z,35.09
2023-03-15T22:42:58.454Z,35.50
2023-03-15T22:45:27.120Z,35.96
2023-03-15T22:47:55.590Z,36.43
2023-03-15T22:50:24.369Z,36.51
2023-03-15T22:52:54.195Z,36.99
2023-03-15T22:55:23.096Z,37.30
2023-03-15T22:57:53.973Z,37.48
2023-03-15T23:00:24.819Z,37.36
2023-03-15T23:02:53.474Z,37.40
2023-03-15T23:05:22.125Z,37.86
2023-03-15T23:07:50.553Z,37.92
2023-03-15T23:10:19.186Z,37.95
2023-03-15T23:12:47.654Z,38.40
2023-03-15T23:15:18.420Z,38.42
2023-03-15T23:17:47.187Z,38.39
2023-03-15T23:20:19.032Z,38.42
2023-03-15T23:22:48.860Z,38.94
2023-03-15T23:25:20.460Z,39.11
2023-03-15T23:27:49.878Z,39.35
2023-03-15T23:30:20.179Z,39.27
2023-03-15T23:32:52.123Z,39.50
2023-03-15T23:35:21.305Z,39.49
2023-03-15T23:37:49.776Z,39.79
2023-03-15T23:40:19.442Z,39.87
2023-03-15T23:42:48.730Z,39.68
2023-03-15T23:45:17.368Z,40.21
2023-03-15T23:47:47.215Z,39.92
2023-03-15T23:50:16.288Z,40.47
2023-03-15T23:52:44.834Z,40.03
2023-03-15T23:55:13.367Z,40.28
2023-03-15T23:57:41.864Z,40.00
